sensor_id;sensor_type;location;lat;lon;timestamp;P1;durP1;ratioP1;P2;durP2;ratioP2
19780;SDS011;10050;55.492;13.506;2022-10-17T00:01:41;8.60;;;2.00;;
19780;SDS011;10050;55.492;13.506;2022-10-17T00:04:07;10.60;;;2.10;;
19780;SDS011;10050;55.492;13.506;2022-10-17T00:06:32;5.67;;;1.97;;
19780;SDS011;10050;55.492;13.506;2022-10-17T00:08:58;7.03;;;1.80;;
19780;SDS011;10050;55.492;13.506;2022-10-17T00:11:23;11.13;;;2.03;;
19780;SDS011;10050;55.492;13.506;2022-10-17T00:13:49;4.57;;;1.73;;
19780;SDS011;10050;55.492;13.506;2022-10-17T00:16:28;8.57;;;1.73;;
19780;SDS011;10050;55.492;13.506;2022-10-17T00:18:55;9.27;;;1.50;;
19780;SDS011;10050;55.492;13.506;2022-10-17T00:21:22;8.67;;;2.43;;
19780;SDS011;10050;55.492;13.506;2022-10-17T00:23:48;5.87;;;1.30;;
19780;SDS011;10050;55.492;13.506;2022-10-17T00:26:14;7.37;;;2.00;;
19780;SDS011;10050;55.492;13.506;2022-10-17T00:28:41;7.97;;;1.63;;
19780;SDS011;10050;55.492;13.506;2022-10-17T00:31:07;7.23;;;1.73;;
19780;SDS011;10050;55.492;13.506;2022-10-17T00:33:33;5.00;;;1.40;;
19780;SDS011;10050;55.492;13.506;2022-10-17T00:36:06;6.27;;;1.50;;
19780;SDS011;10050;55.492;13.506;2022-10-17T00:38:41;11.97;;;2.23;;
19780;SDS011;10050;55.492;13.506;2022-10-17T00:41:09;5.90;;;1.83;;
19780;SDS011;10050;55.492;13.506;2022-10-17T00:46:14;6.20;;;1.63;;
19780;SDS011;10050;55.492;13.506;2022-10-17T00:48:40;7.37;;;1.80;;
19780;SDS011;10050;55.492;13.506;2022-10-17T00:51:06;5.30;;;1.40;;
19780;SDS011;10050;55.492;13.506;2022-10-17T00:53:32;7.73;;;1.87;;
19780;SDS011;10050;55.492;13.506;2022-10-17T00:55:59;5.13;;;1.77;;
19780;SDS011;10050;55.492;13.506;2022-10-17T00:58:25;5.60;;;1.77;;
19780;SDS011;10050;55.492;13.506;2022-10-17T01:00:51;4.90;;;1.60;;
19780;SDS011;10050;55.492;13.506;2022-10-17T01:03:17;6.57;;;1.30;;
19780;SDS011;10050;55.492;13.506;2022-10-17T01:05:42;6.30;;;1.57;;
19780;SDS011;10050;55.492;13.506;2022-10-17T01:08:08;5.03;;;1.50;;
19780;SDS011;10050;55.492;13.506;2022-10-17T01:16:16;11.17;;;1.87;;
19780;SDS011;10050;55.492;13.506;2022-10-17T01:19:47;4.17;;;1.50;;
19780;SDS011;10050;55.492;13.506;2022-10-17T01:22:11;10.07;;;1.97;;
19780;SDS011;10050;55.492;13.506;2022-10-17T01:25:15;6.37;;;1.93;;
19780;SDS011;10050;55.492;13.506;2022-10-17T01:33:33;7.70;;;1.60;;
19780;SDS011;10050;55.492;13.506;2022-10-17T01:39:12;8.20;;;1.60;;
19780;SDS011;10050;55.492;13.506;2022-10-17T01:41:58;5.50;;;1.67;;
19780;SDS011;10050;55.492;13.506;2022-10-17T01:44:35;7.03;;;1.90;;
19780;SDS011;10050;55.492;13.506;2022-10-17T01:47:12;6.13;;;1.43;;
19780;SDS011;10050;55.492;13.506;2022-10-17T01:49:43;5.50;;;1.50;;
19780;SDS011;10050;55.492;13.506;2022-10-17T01:52:14;3.83;;;1.43;;
19780;SDS011;10050;55.492;13.506;2022-10-17T01:54:52;7.73;;;1.80;;
19780;SDS011;10050;55.492;13.506;2022-10-17T02:00:00;6.50;;;1.57;;
19780;SDS011;10050;55.492;13.506;2022-10-17T02:02:28;5.57;;;1.67;;
19780;SDS011;10050;55.492;13.506;2022-10-17T02:04:55;8.63;;;2.20;;
19780;SDS011;10050;55.492;13.506;2022-10-17T02:07:21;8.20;;;1.60;;
19780;SDS011;10050;55.492;13.506;2022-10-17T02:09:47;6.67;;;2.13;;
19780;SDS011;10050;55.492;13.506;2022-10-17T02:14:54;4.43;;;1.47;;
19780;SDS011;10050;55.492;13.506;2022-10-17T02:20:18;4.03;;;1.53;;
19780;SDS011;10050;55.492;13.506;2022-10-17T02:22:57;11.63;;;1.50;;
19780;SDS011;10050;55.492;13.506;2022-10-17T02:28:04;6.67;;;1.60;;
19780;SDS011;10050;55.492;13.506;2022-10-17T02:30:41;3.73;;;1.60;;
19780;SDS011;10050;55.492;13.506;2022-10-17T02:33:55;2.73;;;1.50;;
19780;SDS011;10050;55.492;13.506;2022-10-17T02:36:11;5.90;;;1.63;;
19780;SDS011;10050;55.492;13.506;2022-10-17T02:38:41;10.73;;;1.90;;
19780;SDS011;10050;55.492;13.506;2022-10-17T02:41:10;5.73;;;1.63;;
19780;SDS011;10050;55.492;13.506;2022-10-17T02:43:39;6.17;;;2.53;;
19780;SDS011;10050;55.492;13.506;2022-10-17T02:46:09;9.30;;;2.37;;
19780;SDS011;10050;55.492;13.506;2022-10-17T02:48:37;4.37;;;1.60;;
19780;SDS011;10050;55.492;13.506;2022-10-17T02:51:13;8.60;;;2.00;;
19780;SDS011;10050;55.492;13.506;2022-10-17T02:56:41;2.20;;;1.30;;
19780;SDS011;10050;55.492;13.506;2022-10-17T02:59:14;3.70;;;1.73;;
19780;SDS011;10050;55.492;13.506;2022-10-17T03:01:43;3.77;;;1.30;;
19780;SDS011;10050;55.492;13.506;2022-10-17T03:04:10;4.50;;;1.37;;
19780;SDS011;10050;55.492;13.506;2022-10-17T03:06:38;10.70;;;1.53;;
19780;SDS011;10050;55.492;13.506;2022-10-17T03:09:05;4.50;;;1.23;;
19780;SDS011;10050;55.492;13.506;2022-10-17T03:11:31;3.27;;;1.40;;
19780;SDS011;10050;55.492;13.506;2022-10-17T03:13:57;4.33;;;1.50;;
19780;SDS011;10050;55.492;13.506;2022-10-17T03:16:23;2.87;;;1.20;;
19780;SDS011;10050;55.492;13.506;2022-10-17T03:18:49;5.87;;;1.20;;
19780;SDS011;10050;55.492;13.506;2022-10-17T03:21:15;4.43;;;1.30;;
19780;SDS011;10050;55.492;13.506;2022-10-17T03:23:40;2.93;;;1.50;;
19780;SDS011;10050;55.492;13.506;2022-10-17T03:26:06;6.90;;;1.87;;
19780;SDS011;10050;55.492;13.506;2022-10-17T03:28:32;4.67;;;1.43;;
19780;SDS011;10050;55.492;13.506;2022-10-17T03:30:58;6.07;;;1.60;;
19780;SDS011;10050;55.492;13.506;2022-10-17T03:33:30;3.90;;;1.40;;
19780;SDS011;10050;55.492;13.506;2022-10-17T03:35:55;8.67;;;1.60;;
19780;SDS011;10050;55.492;13.506;2022-10-17T03:38:21;2.43;;;1.23;;
19780;SDS011;10050;55.492;13.506;2022-10-17T03:40:53;2.27;;;1.53;;
19780;SDS011;10050;55.492;13.506;2022-10-17T03:43:19;6.43;;;1.60;;
19780;SDS011;10050;55.492;13.506;2022-10-17T03:45:45;4.67;;;1.50;;
19780;SDS011;10050;55.492;13.506;2022-10-17T03:48:10;4.77;;;1.43;;
19780;SDS011;10050;55.492;13.506;2022-10-17T03:50:36;5.07;;;1.73;;
19780;SDS011;10050;55.492;13.506;2022-10-17T03:53:01;4.20;;;1.20;;
19780;SDS011;10050;55.492;13.506;2022-10-17T03:55:28;5.17;;;1.77;;
19780;SDS011;10050;55.492;13.506;2022-10-17T03:57:53;4.43;;;1.53;;
19780;SDS011;10050;55.492;13.506;2022-10-17T04:00:19;6.37;;;1.57;;
19780;SDS011;10050;55.492;13.506;2022-10-17T04:02:44;10.53;;;2.13;;
19780;SDS011;10050;55.492;13.506;2022-10-17T04:05:10;3.47;;;1.50;;
19780;SDS011;10050;55.492;13.506;2022-10-17T04:07:35;4.60;;;1.83;;
19780;SDS011;10050;55.492;13.506;2022-10-17T04:10:01;4.93;;;1.80;;
19780;SDS011;10050;55.492;13.506;2022-10-17T04:12:28;5.20;;;1.83;;
19780;SDS011;10050;55.492;13.506;2022-10-17T04:14:53;7.43;;;1.70;;
19780;SDS011;10050;55.492;13.506;2022-10-17T04:17:19;4.13;;;1.83;;
19780;SDS011;10050;55.492;13.506;2022-10-17T04:19:45;3.57;;;1.67;;
19780;SDS011;10050;55.492;13.506;2022-10-17T04:22:10;6.40;;;1.70;;
19780;SDS011;10050;55.492;13.506;2022-10-17T04:24:36;5.70;;;1.47;;
19780;SDS011;10050;55.492;13.506;2022-10-17T04:27:01;4.20;;;1.70;;
19780;SDS011;10050;55.492;13.506;2022-10-17T04:29:27;3.60;;;1.73;;
19780;SDS011;10050;55.492;13.506;2022-10-17T04:31:53;10.83;;;2.00;;
19780;SDS011;10050;55.492;13.506;2022-10-17T04:34:20;5.70;;;2.37;;
19780;SDS011;10050;55.492;13.506;2022-10-17T04:36:45;4.57;;;2.43;;
19780;SDS011;10050;55.492;13.506;2022-10-17T04:39:11;4.10;;;1.80;;
19780;SDS011;10050;55.492;13.506;2022-10-17T04:41:37;3.30;;;1.70;;
19780;SDS011;10050;55.492;13.506;2022-10-17T04:44:03;5.40;;;1.80;;
19780;SDS011;10050;55.492;13.506;2022-10-17T04:46:28;9.87;;;1.70;;
19780;SDS011;10050;55.492;13.506;2022-10-17T04:48:54;3.80;;;1.40;;
19780;SDS011;10050;55.492;13.506;2022-10-17T04:51:20;3.17;;;1.60;;
19780;SDS011;10050;55.492;13.506;2022-10-17T04:53:45;8.73;;;1.90;;
19780;SDS011;10050;55.492;13.506;2022-10-17T04:56:12;5.00;;;2.27;;
19780;SDS011;10050;55.492;13.506;2022-10-17T04:58:40;2.47;;;1.87;;
19780;SDS011;10050;55.492;13.506;2022-10-17T05:01:07;4.70;;;1.53;;
19780;SDS011;10050;55.492;13.506;2022-10-17T05:03:35;4.77;;;1.40;;
19780;SDS011;10050;55.492;13.506;2022-10-17T05:06:09;3.47;;;1.40;;
19780;SDS011;10050;55.492;13.506;2022-10-17T05:08:37;8.50;;;2.13;;
19780;SDS011;10050;55.492;13.506;2022-10-17T05:11:03;6.77;;;2.97;;
19780;SDS011;10050;55.492;13.506;2022-10-17T05:13:30;2.97;;;1.30;;
19780;SDS011;10050;55.492;13.506;2022-10-17T05:15:59;4.80;;;1.83;;
19780;SDS011;10050;55.492;13.506;2022-10-17T05:18:26;10.43;;;2.30;;
19780;SDS011;10050;55.492;13.506;2022-10-17T05:20:52;6.43;;;2.00;;
19780;SDS011;10050;55.492;13.506;2022-10-17T05:23:17;6.20;;;1.73;;
19780;SDS011;10050;55.492;13.506;2022-10-17T05:25:43;4.07;;;1.70;;
19780;SDS011;10050;55.492;13.506;2022-10-17T05:28:08;5.73;;;2.17;;
19780;SDS011;10050;55.492;13.506;2022-10-17T05:30:34;8.67;;;2.13;;
19780;SDS011;10050;55.492;13.506;2022-10-17T05:33:00;5.63;;;2.50;;
19780;SDS011;10050;55.492;13.506;2022-10-17T05:35:26;6.53;;;2.20;;
19780;SDS011;10050;55.492;13.506;2022-10-17T05:37:52;4.27;;;1.70;;
19780;SDS011;10050;55.492;13.506;2022-10-17T05:40:18;5.63;;;1.77;;
19780;SDS011;10050;55.492;13.506;2022-10-17T05:42:47;4.67;;;1.90;;
19780;SDS011;10050;55.492;13.506;2022-10-17T05:45:13;4.43;;;1.97;;
19780;SDS011;10050;55.492;13.506;2022-10-17T05:47:39;5.33;;;2.20;;
19780;SDS011;10050;55.492;13.506;2022-10-17T05:50:06;4.33;;;2.10;;
19780;SDS011;10050;55.492;13.506;2022-10-17T05:52:32;5.57;;;2.40;;
19780;SDS011;10050;55.492;13.506;2022-10-17T05:54:58;5.50;;;2.23;;
19780;SDS011;10050;55.492;13.506;2022-10-17T05:57:24;5.67;;;2.00;;
19780;SDS011;10050;55.492;13.506;2022-10-17T05:59:50;7.60;;;2.47;;
19780;SDS011;10050;55.492;13.506;2022-10-17T06:02:16;10.63;;;2.77;;
19780;SDS011;10050;55.492;13.506;2022-10-17T06:04:41;4.50;;;2.50;;
19780;SDS011;10050;55.492;13.506;2022-10-17T06:07:10;8.27;;;2.00;;
19780;SDS011;10050;55.492;13.506;2022-10-17T06:09:39;5.77;;;2.40;;
19780;SDS011;10050;55.492;13.506;2022-10-17T06:12:04;5.90;;;2.10;;
19780;SDS011;10050;55.492;13.506;2022-10-17T06:14:31;5.82;;;1.70;;
19780;SDS011;10050;55.492;13.506;2022-10-17T06:16:56;10.67;;;3.03;;
19780;SDS011;10050;55.492;13.506;2022-10-17T06:19:23;7.57;;;2.80;;
19780;SDS011;10050;55.492;13.506;2022-10-17T06:21:49;10.87;;;2.90;;
19780;SDS011;10050;55.492;13.506;2022-10-17T06:24:14;7.47;;;2.60;;
19780;SDS011;10050;55.492;13.506;2022-10-17T06:26:40;5.27;;;2.20;;
19780;SDS011;10050;55.492;13.506;2022-10-17T06:29:06;4.40;;;2.17;;
19780;SDS011;10050;55.492;13.506;2022-10-17T06:31:31;8.23;;;3.03;;
19780;SDS011;10050;55.492;13.506;2022-10-17T06:33:57;6.07;;;2.50;;
19780;SDS011;10050;55.492;13.506;2022-10-17T06:36:23;3.50;;;2.50;;
19780;SDS011;10050;55.492;13.506;2022-10-17T06:38:48;12.37;;;2.80;;
19780;SDS011;10050;55.492;13.506;2022-10-17T06:41:15;6.00;;;2.37;;
19780;SDS011;10050;55.492;13.506;2022-10-17T06:43:43;5.83;;;2.40;;
19780;SDS011;10050;55.492;13.506;2022-10-17T06:46:10;3.57;;;1.97;;
19780;SDS011;10050;55.492;13.506;2022-10-17T06:48:37;6.83;;;2.20;;
19780;SDS011;10050;55.492;13.506;2022-10-17T06:51:03;8.77;;;2.17;;
19780;SDS011;10050;55.492;13.506;2022-10-17T06:53:31;4.57;;;2.07;;
19780;SDS011;10050;55.492;13.506;2022-10-17T06:55:57;6.70;;;2.47;;
19780;SDS011;10050;55.492;13.506;2022-10-17T06:58:32;6.73;;;2.20;;
19780;SDS011;10050;55.492;13.506;2022-10-17T07:01:06;3.33;;;2.27;;
19780;SDS011;10050;55.492;13.506;2022-10-17T07:03:36;6.43;;;2.07;;
19780;SDS011;10050;55.492;13.506;2022-10-17T07:06:03;5.77;;;2.40;;
19780;SDS011;10050;55.492;13.506;2022-10-17T07:08:29;6.17;;;1.87;;
19780;SDS011;10050;55.492;13.506;2022-10-17T07:10:55;2.73;;;2.07;;
19780;SDS011;10050;55.492;13.506;2022-10-17T07:13:21;5.60;;;1.90;;
19780;SDS011;10050;55.492;13.506;2022-10-17T07:15:47;2.93;;;1.93;;
19780;SDS011;10050;55.492;13.506;2022-10-17T07:18:13;6.10;;;2.03;;
19780;SDS011;10050;55.492;13.506;2022-10-17T07:20:38;4.20;;;1.97;;
19780;SDS011;10050;55.492;13.506;2022-10-17T07:23:04;7.07;;;2.33;;
19780;SDS011;10050;55.492;13.506;2022-10-17T07:25:30;5.73;;;1.97;;
19780;SDS011;10050;55.492;13.506;2022-10-17T07:27:56;4.60;;;2.20;;
19780;SDS011;10050;55.492;13.506;2022-10-17T07:30:22;4.13;;;1.80;;
19780;SDS011;10050;55.492;13.506;2022-10-17T07:32:48;4.87;;;1.90;;
19780;SDS011;10050;55.492;13.506;2022-10-17T07:35:16;6.53;;;2.17;;
19780;SDS011;10050;55.492;13.506;2022-10-17T07:37:42;8.93;;;2.50;;
19780;SDS011;10050;55.492;13.506;2022-10-17T07:40:07;4.47;;;1.97;;
19780;SDS011;10050;55.492;13.506;2022-10-17T07:42:36;6.50;;;2.10;;
19780;SDS011;10050;55.492;13.506;2022-10-17T07:45:03;4.37;;;2.10;;
19780;SDS011;10050;55.492;13.506;2022-10-17T07:47:29;12.80;;;2.10;;
19780;SDS011;10050;55.492;13.506;2022-10-17T07:49:57;4.23;;;2.33;;
19780;SDS011;10050;55.492;13.506;2022-10-17T07:52:22;9.70;;;2.47;;
19780;SDS011;10050;55.492;13.506;2022-10-17T07:54:48;12.23;;;2.63;;
19780;SDS011;10050;55.492;13.506;2022-10-17T07:57:14;8.53;;;2.53;;
19780;SDS011;10050;55.492;13.506;2022-10-17T07:59:40;11.47;;;2.63;;
19780;SDS011;10050;55.492;13.506;2022-10-17T08:02:05;9.50;;;2.23;;
19780;SDS011;10050;55.492;13.506;2022-10-17T08:04:33;8.77;;;2.60;;
19780;SDS011;10050;55.492;13.506;2022-10-17T08:07:00;8.67;;;2.77;;
19780;SDS011;10050;55.492;13.506;2022-10-17T08:09:26;9.73;;;2.33;;
19780;SDS011;10050;55.492;13.506;2022-10-17T08:11:51;9.73;;;2.70;;
19780;SDS011;10050;55.492;13.506;2022-10-17T08:14:18;5.60;;;2.20;;
19780;SDS011;10050;55.492;13.506;2022-10-17T08:16:43;8.17;;;2.47;;
19780;SDS011;10050;55.492;13.506;2022-10-17T08:19:09;9.50;;;2.87;;
19780;SDS011;10050;55.492;13.506;2022-10-17T08:21:35;11.63;;;2.67;;
19780;SDS011;10050;55.492;13.506;2022-10-17T08:24:02;13.53;;;2.87;;
19780;SDS011;10050;55.492;13.506;2022-10-17T08:26:28;13.43;;;2.50;;
19780;SDS011;10050;55.492;13.506;2022-10-17T08:28:54;15.27;;;2.40;;
19780;SDS011;10050;55.492;13.506;2022-10-17T08:31:20;8.03;;;2.07;;
19780;SDS011;10050;55.492;13.506;2022-10-17T08:33:48;9.30;;;2.20;;
19780;SDS011;10050;55.492;13.506;2022-10-17T08:36:15;10.60;;;2.03;;
19780;SDS011;10050;55.492;13.506;2022-10-17T08:38:42;11.13;;;2.70;;
19780;SDS011;10050;55.492;13.506;2022-10-17T08:46:40;11.07;;;2.27;;
19780;SDS011;10050;55.492;13.506;2022-10-17T08:49:10;8.97;;;2.13;;
19780;SDS011;10050;55.492;13.506;2022-10-17T08:51:46;6.43;;;1.80;;
19780;SDS011;10050;55.492;13.506;2022-10-17T08:54:21;6.13;;;1.97;;
19780;SDS011;10050;55.492;13.506;2022-10-17T08:57:16;8.63;;;1.77;;
19780;SDS011;10050;55.492;13.506;2022-10-17T08:59:42;7.23;;;1.70;;
19780;SDS011;10050;55.492;13.506;2022-10-17T09:16:08;6.63;;;2.50;;
19780;SDS011;10050;55.492;13.506;2022-10-17T09:24:18;5.00;;;1.77;;
19780;SDS011;10050;55.492;13.506;2022-10-17T09:26:49;6.40;;;1.67;;
19780;SDS011;10050;55.492;13.506;2022-10-17T09:29:25;10.30;;;2.60;;
19780;SDS011;10050;55.492;13.506;2022-10-17T09:32:11;7.73;;;1.57;;
19780;SDS011;10050;55.492;13.506;2022-10-17T09:34:39;11.33;;;1.90;;
19780;SDS011;10050;55.492;13.506;2022-10-17T09:37:05;9.33;;;2.07;;
19780;SDS011;10050;55.492;13.506;2022-10-17T09:39:36;8.10;;;1.50;;
19780;SDS011;10050;55.492;13.506;2022-10-17T09:42:02;5.50;;;1.80;;
19780;SDS011;10050;55.492;13.506;2022-10-17T09:44:36;7.10;;;1.83;;
19780;SDS011;10050;55.492;13.506;2022-10-17T09:47:21;4.53;;;1.80;;
19780;SDS011;10050;55.492;13.506;2022-10-17T09:49:48;7.10;;;1.70;;
19780;SDS011;10050;55.492;13.506;2022-10-17T09:52:22;6.63;;;1.77;;
19780;SDS011;10050;55.492;13.506;2022-10-17T09:57:24;5.13;;;1.93;;
19780;SDS011;10050;55.492;13.506;2022-10-17T09:59:57;5.00;;;1.43;;
19780;SDS011;10050;55.492;13.506;2022-10-17T10:02:24;9.27;;;2.17;;
19780;SDS011;10050;55.492;13.506;2022-10-17T10:04:56;5.40;;;1.93;;
19780;SDS011;10050;55.492;13.506;2022-10-17T10:07:31;8.07;;;1.97;;
19780;SDS011;10050;55.492;13.506;2022-10-17T10:10:02;7.40;;;1.70;;
19780;SDS011;10050;55.492;13.506;2022-10-17T10:12:31;4.67;;;1.83;;
19780;SDS011;10050;55.492;13.506;2022-10-17T10:14:59;4.53;;;1.70;;
19780;SDS011;10050;55.492;13.506;2022-10-17T10:17:43;2.37;;;1.40;;
19780;SDS011;10050;55.492;13.506;2022-10-17T10:20:27;4.17;;;1.67;;
19780;SDS011;10050;55.492;13.506;2022-10-17T10:25:55;8.23;;;1.50;;
19780;SDS011;10050;55.492;13.506;2022-10-17T10:28:29;2.57;;;1.80;;
19780;SDS011;10050;55.492;13.506;2022-10-17T10:30:59;5.30;;;1.70;;
19780;SDS011;10050;55.492;13.506;2022-10-17T10:33:29;2.80;;;1.60;;
19780;SDS011;10050;55.492;13.506;2022-10-17T10:35:58;5.13;;;1.80;;
19780;SDS011;10050;55.492;13.506;2022-10-17T10:38:26;7.80;;;1.97;;
19780;SDS011;10050;55.492;13.506;2022-10-17T10:40:56;3.20;;;1.60;;
19780;SDS011;10050;55.492;13.506;2022-10-17T10:43:39;3.70;;;1.63;;
19780;SDS011;10050;55.492;13.506;2022-10-17T10:48:52;4.83;;;1.80;;
19780;SDS011;10050;55.492;13.506;2022-10-17T10:51:24;6.28;;;2.42;;
19780;SDS011;10050;55.492;13.506;2022-10-17T10:54:00;9.03;;;2.27;;
19780;SDS011;10050;55.492;13.506;2022-10-17T10:56:52;1.97;;;1.83;;
19780;SDS011;10050;55.492;13.506;2022-10-17T10:59:21;5.07;;;2.10;;
19780;SDS011;10050;55.492;13.506;2022-10-17T11:07:36;2.77;;;1.90;;
19780;SDS011;10050;55.492;13.506;2022-10-17T11:12:56;4.70;;;1.60;;
19780;SDS011;10050;55.492;13.506;2022-10-17T11:15:47;4.23;;;1.90;;
19780;SDS011;10050;55.492;13.506;2022-10-17T11:18:24;5.33;;;1.80;;
19780;SDS011;10050;55.492;13.506;2022-10-17T11:21:08;4.77;;;1.90;;
19780;SDS011;10050;55.492;13.506;2022-10-17T11:23:46;8.87;;;1.97;;
19780;SDS011;10050;55.492;13.506;2022-10-17T11:26:34;2.33;;;1.57;;
19780;SDS011;10050;55.492;13.506;2022-10-17T11:29:06;2.73;;;1.63;;
19780;SDS011;10050;55.492;13.506;2022-10-17T11:31:37;2.10;;;1.73;;
19780;SDS011;10050;55.492;13.506;2022-10-17T11:36:47;6.13;;;1.60;;
19780;SDS011;10050;55.492;13.506;2022-10-17T11:39:18;4.53;;;2.03;;
19780;SDS011;10050;55.492;13.506;2022-10-17T11:41:55;2.63;;;1.43;;
19780;SDS011;10050;55.492;13.506;2022-10-17T11:44:30;3.97;;;1.60;;
19780;SDS011;10050;55.492;13.506;2022-10-17T11:47:04;4.27;;;1.77;;
19780;SDS011;10050;55.492;13.506;2022-10-17T11:49:43;3.13;;;1.60;;
19780;SDS011;10050;55.492;13.506;2022-10-17T11:55:13;2.23;;;1.90;;
19780;SDS011;10050;55.492;13.506;2022-10-17T12:06:02;2.43;;;1.83;;
19780;SDS011;10050;55.492;13.506;2022-10-17T12:14:33;1.73;;;1.60;;
19780;SDS011;10050;55.492;13.506;2022-10-17T12:25:28;3.27;;;2.27;;
19780;SDS011;10050;55.492;13.506;2022-10-17T12:28:14;3.00;;;2.03;;
19780;SDS011;10050;55.492;13.506;2022-10-17T12:30:54;3.25;;;2.42;;
19780;SDS011;10050;55.492;13.506;2022-10-17T12:49:42;6.27;;;3.20;;
19780;SDS011;10050;55.492;13.506;2022-10-17T12:54:42;4.57;;;3.03;;
19780;SDS011;10050;55.492;13.506;2022-10-17T12:59:49;3.20;;;2.67;;
19780;SDS011;10050;55.492;13.506;2022-10-17T13:02:20;6.77;;;3.83;;
19780;SDS011;10050;55.492;13.506;2022-10-17T13:04:49;10.07;;;3.33;;
19780;SDS011;10050;55.492;13.506;2022-10-17T13:07:30;4.90;;;3.40;;
19780;SDS011;10050;55.492;13.506;2022-10-17T13:09:58;3.57;;;3.27;;
19780;SDS011;10050;55.492;13.506;2022-10-17T13:12:29;7.63;;;3.80;;
19780;SDS011;10050;55.492;13.506;2022-10-17T13:14:58;4.63;;;3.30;;
19780;SDS011;10050;55.492;13.506;2022-10-17T13:17:28;8.17;;;3.97;;
19780;SDS011;10050;55.492;13.506;2022-10-17T13:19:55;3.40;;;3.10;;
19780;SDS011;10050;55.492;13.506;2022-10-17T13:22:26;4.27;;;3.10;;
19780;SDS011;10050;55.492;13.506;2022-10-17T13:25:14;4.70;;;3.90;;
19780;SDS011;10050;55.492;13.506;2022-10-17T13:27:43;5.07;;;4.13;;
19780;SDS011;10050;55.492;13.506;2022-10-17T13:30:28;4.13;;;3.73;;
19780;SDS011;10050;55.492;13.506;2022-10-17T13:32:59;5.63;;;4.20;;
19780;SDS011;10050;55.492;13.506;2022-10-17T13:35:30;8.70;;;4.27;;
19780;SDS011;10050;55.492;13.506;2022-10-17T13:38:00;5.73;;;4.40;;
19780;SDS011;10050;55.492;13.506;2022-10-17T13:40:29;7.03;;;4.27;;
19780;SDS011;10050;55.492;13.506;2022-10-17T13:42:55;4.80;;;3.93;;
19780;SDS011;10050;55.492;13.506;2022-10-17T13:47:57;5.50;;;4.70;;
19780;SDS011;10050;55.492;13.506;2022-10-17T13:50:33;7.97;;;5.07;;
19780;SDS011;10050;55.492;13.506;2022-10-17T13:53:24;5.57;;;4.43;;
19780;SDS011;10050;55.492;13.506;2022-10-17T13:55:58;7.77;;;5.17;;
19780;SDS011;10050;55.492;13.506;2022-10-17T13:58:41;5.93;;;4.87;;
19780;SDS011;10050;55.492;13.506;2022-10-17T14:01:16;4.93;;;4.40;;
19780;SDS011;10050;55.492;13.506;2022-10-17T14:03:43;6.90;;;5.23;;
19780;SDS011;10050;55.492;13.506;2022-10-17T14:06:14;5.27;;;4.77;;
19780;SDS011;10050;55.492;13.506;2022-10-17T14:09:00;7.97;;;5.33;;
19780;SDS011;10050;55.492;13.506;2022-10-17T14:13:57;4.73;;;4.27;;
19780;SDS011;10050;55.492;13.506;2022-10-17T14:16:24;7.93;;;4.77;;
19780;SDS011;10050;55.492;13.506;2022-10-17T14:18:52;7.27;;;5.17;;
19780;SDS011;10050;55.492;13.506;2022-10-17T14:21:23;7.30;;;6.47;;
19780;SDS011;10050;55.492;13.506;2022-10-17T14:24:10;6.70;;;5.87;;
19780;SDS011;10050;55.492;13.506;2022-10-17T14:26:54;5.77;;;5.23;;
19780;SDS011;10050;55.492;13.506;2022-10-17T14:29:24;7.20;;;5.30;;
19780;SDS011;10050;55.492;13.506;2022-10-17T14:31:58;7.47;;;5.83;;
19780;SDS011;10050;55.492;13.506;2022-10-17T14:34:35;7.10;;;5.60;;
19780;SDS011;10050;55.492;13.506;2022-10-17T14:40:13;8.60;;;6.00;;
19780;SDS011;10050;55.492;13.506;2022-10-17T14:42:44;6.27;;;5.63;;
19780;SDS011;10050;55.492;13.506;2022-10-17T14:45:13;8.63;;;6.53;;
19780;SDS011;10050;55.492;13.506;2022-10-17T14:47:49;8.77;;;6.53;;
19780;SDS011;10050;55.492;13.506;2022-10-17T14:50:19;8.85;;;7.40;;
19780;SDS011;10050;55.492;13.506;2022-10-17T14:55:35;6.87;;;5.40;;
19780;SDS011;10050;55.492;13.506;2022-10-17T14:58:15;7.97;;;6.37;;
19780;SDS011;10050;55.492;13.506;2022-10-17T15:00:41;8.47;;;6.47;;
19780;SDS011;10050;55.492;13.506;2022-10-17T15:03:07;8.87;;;6.33;;
19780;SDS011;10050;55.492;13.506;2022-10-17T15:05:33;7.87;;;6.20;;
19780;SDS011;10050;55.492;13.506;2022-10-17T15:07:59;8.17;;;6.13;;
19780;SDS011;10050;55.492;13.506;2022-10-17T15:10:30;10.70;;;7.70;;
19780;SDS011;10050;55.492;13.506;2022-10-17T15:13:00;8.37;;;6.00;;
19780;SDS011;10050;55.492;13.506;2022-10-17T15:15:29;7.30;;;5.93;;
19780;SDS011;10050;55.492;13.506;2022-10-17T15:17:55;7.03;;;6.33;;
19780;SDS011;10050;55.492;13.506;2022-10-17T15:20:21;6.63;;;5.90;;
19780;SDS011;10050;55.492;13.506;2022-10-17T15:22:50;9.40;;;5.87;;
19780;SDS011;10050;55.492;13.506;2022-10-17T15:25:17;6.67;;;6.00;;
19780;SDS011;10050;55.492;13.506;2022-10-17T15:27:43;10.40;;;6.20;;
19780;SDS011;10050;55.492;13.506;2022-10-17T15:30:15;8.70;;;6.30;;
19780;SDS011;10050;55.492;13.506;2022-10-17T15:32:42;10.17;;;6.73;;
19780;SDS011;10050;55.492;13.506;2022-10-17T15:35:07;7.40;;;6.50;;
19780;SDS011;10050;55.492;13.506;2022-10-17T15:37:35;8.13;;;4.80;;
19780;SDS011;10050;55.492;13.506;2022-10-17T15:40:14;7.13;;;5.13;;
19780;SDS011;10050;55.492;13.506;2022-10-17T15:42:54;9.37;;;7.03;;
19780;SDS011;10050;55.492;13.506;2022-10-17T15:45:22;8.13;;;6.50;;
19780;SDS011;10050;55.492;13.506;2022-10-17T15:47:50;10.77;;;6.80;;
19780;SDS011;10050;55.492;13.506;2022-10-17T15:50:18;10.97;;;6.73;;
19780;SDS011;10050;55.492;13.506;2022-10-17T15:52:44;10.93;;;7.03;;
19780;SDS011;10050;55.492;13.506;2022-10-17T15:55:11;9.03;;;7.07;;
19780;SDS011;10050;55.492;13.506;2022-10-17T15:57:37;9.17;;;7.47;;
19780;SDS011;10050;55.492;13.506;2022-10-17T16:00:07;19.53;;;11.77;;
19780;SDS011;10050;55.492;13.506;2022-10-17T16:02:47;10.63;;;8.20;;
19780;SDS011;10050;55.492;13.506;2022-10-17T16:05:18;9.80;;;8.40;;
19780;SDS011;10050;55.492;13.506;2022-10-17T16:07:50;11.43;;;7.90;;
19780;SDS011;10050;55.492;13.506;2022-10-17T16:10:17;12.83;;;8.93;;
19780;SDS011;10050;55.492;13.506;2022-10-17T16:12:43;12.83;;;9.03;;
19780;SDS011;10050;55.492;13.506;2022-10-17T16:15:20;12.53;;;8.57;;
19780;SDS011;10050;55.492;13.506;2022-10-17T16:17:48;13.40;;;9.77;;
19780;SDS011;10050;55.492;13.506;2022-10-17T16:20:15;9.80;;;8.73;;
19780;SDS011;10050;55.492;13.506;2022-10-17T16:22:42;10.37;;;8.27;;
19780;SDS011;10050;55.492;13.506;2022-10-17T16:27:47;14.60;;;9.00;;
19780;SDS011;10050;55.492;13.506;2022-10-17T16:30:14;12.43;;;8.97;;
19780;SDS011;10050;55.492;13.506;2022-10-17T16:32:41;9.97;;;7.10;;
19780;SDS011;10050;55.492;13.506;2022-10-17T16:35:07;10.87;;;8.40;;
19780;SDS011;10050;55.492;13.506;2022-10-17T16:37:35;8.53;;;7.43;;
19780;SDS011;10050;55.492;13.506;2022-10-17T16:40:01;8.77;;;7.20;;
19780;SDS011;10050;55.492;13.506;2022-10-17T16:42:28;8.93;;;8.03;;
19780;SDS011;10050;55.492;13.506;2022-10-17T16:44:54;11.27;;;9.07;;
19780;SDS011;10050;55.492;13.506;2022-10-17T16:47:19;9.30;;;8.27;;
19780;SDS011;10050;55.492;13.506;2022-10-17T16:49:45;10.27;;;8.23;;
19780;SDS011;10050;55.492;13.506;2022-10-17T16:52:11;13.07;;;8.97;;
19780;SDS011;10050;55.492;13.506;2022-10-17T16:54:36;12.60;;;9.23;;
19780;SDS011;10050;55.492;13.506;2022-10-17T16:57:02;10.80;;;8.93;;
19780;SDS011;10050;55.492;13.506;2022-10-17T16:59:28;8.80;;;7.83;;
19780;SDS011;10050;55.492;13.506;2022-10-17T17:01:54;10.00;;;7.97;;
19780;SDS011;10050;55.492;13.506;2022-10-17T17:04:19;12.13;;;9.43;;